No se requiere un especial cuidado respecto a la situación meteorológica. No hay avisos

Informes METAR

 

LEZL - Sevilla, Spain
Distancia de la estación: ENE 8km
Actualización: 21/08/2014 10:00
Despejado
Despejado
 Viento de calm
Viento: Calma
Temperatura: 23°C
Rocío: 13°C
Humedad: 53%
Barómetro: 1016 hPa
Resumen: Despejado
Visibilidad: mayor de 10 km
2014/08/21 08:00 LEZL 210800Z 00000KT CAVOK 23/13 Q1016 NOSIG
LEMO - Morón, Spain
Distancia de la estación: SE 43km
Actualización: 21/08/2014 10:00
Parcialmente nuboso
Parcialmente nuboso
 Viento de calm
Viento: Calma
Temperatura: 24°C
Rocío: 7°C
Humedad: 34%
Barómetro: 1016 hPa
Nubes: Parcialmente nuboso
Visibilidad: 9 km
2014/08/21 08:00 LEMO 210800Z 00000KT 9000 NSC 24/07 Q1016 NOSIG
LEJR - Jeréz, Spain
Distancia de la estación: S 71km
Actualización: 21/08/2014 10:00
Despejado
Despejado
 Viento de variable
Viento: variable 2 km/h
Temperatura: 22°C
Rocío: 16°C
Humedad: 69%
Barómetro: 1016 hPa
Resumen: Despejado
Visibilidad: mayor de 10 km
2014/08/21 08:00 LEJR 210800Z VRB01KT CAVOK 22/16 Q1016
 
LERT - Rota, Spain
Distancia de la estación: SSO 89km
Actualización: 21/08/2014 10:00
Despejado
Despejado
 Viento de calm
Viento: Calma
Temperatura: 24°C
Rocío: 17°C
Humedad: 65%
Barómetro: 1016 hPa
Resumen: Despejado
Visibilidad: mayor de 10 km
2014/08/21 08:00 LERT 210800Z 00000KT CAVOK 24/17 Q1016 NOSIG
LEMG - Málaga, Spain
Distancia de la estación: ESE 157km
Actualización: 21/08/2014 10:00
Despejado
Despejado
 Viento de ONO
Viento: ONO 11 km/h
Temperatura: 29°C
Rocío: 6°C
Humedad: 23%
Barómetro: 1014 hPa
Resumen: Despejado
Visibilidad: mayor de 10 km
2014/08/21 08:00 LEMG 210800Z 29006KT 260V330 CAVOK 29/06 Q1014 NOSIG
LEBA - Córdoba, Spain
Distancia de la estación: ENE 115km
Actualización: 21/08/2014 10:00
Despejado
Despejado
 Viento de variable
Viento: variable 2 km/h
Temperatura: 22°C
Rocío: 11°C
Humedad: 50%
Barómetro: 1016 hPa
Resumen: Despejado
Visibilidad: mayor de 10 km
2014/08/21 08:00 LEBA 210800Z VRB01KT CAVOK 22/11 Q1016
 
LEGR - Granada, Spain
Distancia de la estación: E 198km
Actualización: 21/08/2014 10:00
Despejado
Despejado
 Viento de calm
Viento: Calma
Temperatura: 21°C
Rocío: 9°C
Humedad: 46%
Barómetro: 1018 hPa
Resumen: Despejado
Visibilidad: mayor de 10 km
2014/08/21 08:00 LEGR 210800Z 00000KT CAVOK 21/09 Q1018
LEAM - Almería, Spain
Distancia de la estación: E 326km
Actualización: 21/08/2014 10:00
Despejado
Despejado
 Viento de calm
Viento: Calma
Temperatura: 28°C
Índice de calor: 29°C
Rocío: 18°C
Humedad: 55%
Barómetro: 1014 hPa
Resumen: Despejado
Visibilidad: mayor de 10 km
2014/08/21 08:00 LEAM 210800Z 00000KT CAVOK 28/18 Q1014
LEMD - Madrid/Barajas, Spain
Distancia de la estación: NNE 402km
Actualización: 21/08/2014 10:00
Despejado
Despejado
 Viento de variable
Viento: variable 4 km/h
Temperatura: 20°C
Rocío: 10°C
Humedad: 53%
Barómetro: 1017 hPa
Resumen: Despejado
Visibilidad: mayor de 10 km
2014/08/21 08:00 LEMD 210800Z VRB02KT CAVOK 20/10 Q1017 NOSIG
 
LEVD - Valladolid, Spain
Distancia de la estación: N 492km
Actualización: 21/08/2014 10:00
Despejado
Despejado
 Viento de ENE
Viento: ENE 7 km/h
Temperatura: 14°C
Rocío: 10°C
Humedad: 77%
Barómetro: 1018 hPa
Resumen: Despejado
Visibilidad: mayor de 10 km
2014/08/21 08:00 LEVD 210800Z 07004KT 040V100 CAVOK 14/10 Q1018
LEBL - Barcelona, Spain
Distancia de la estación: NE 816km
Actualización: 21/08/2014 10:00
Muy nuboso
Muy nuboso
 Viento de ESE
Viento: ESE 9 km/h
Temperatura: 22°C
Rocío: 15°C
Humedad: 65%
Barómetro: 1017 hPa
Nubes: Muy nuboso
Visibilidad: 10 km
Detalles de las nubes: Muy nuboso 1158 m
2014/08/21 08:00 LEBL 210800Z 11005KT 9999 BKN038 22/15 Q1017 NOSIG
LEVC - Valencia, Spain
Distancia de la estación: ENE 535km
Actualización: 21/08/2014 10:00
Poco nuboso
Poco nuboso
 Viento de ENE
Viento: ENE 19 km/h
Temperatura: 26°C
Rocío: 19°C
Humedad: 65%
Barómetro: 1016 hPa
Nubes: Poco nuboso
Visibilidad: 10 km
Detalles de las nubes: Poco nuboso 457 m
2014/08/21 08:00 LEVC 210800Z 06010KT 020V080 9999 FEW015 26/19 Q1016 NOSIG